Time;durP1;ratioP1;P1;durP2;ratioP2;P2;SDS_P1;SDS_P2;PMS_P1;PMS_P2;Temp;Humidity;BMP_temperature;BMP_pressure;BME280_temperature;BME280_humidity;BME280_pressure;Samples;Min_cycle;Max_cycle;Signal;HPM_P1;HPM_P2
2023/10/19 00:01:11;;;;;;;;;;;;;;;15.07;53.96;99262.59;4930995;28;124719;-67
2023/10/19 00:03:39;;;;;;;;;;;;;;;15.08;53.99;99258.97;4925501;28;124878;-67
2023/10/19 00:06:06;;;;;;;;;;;;;;;15.09;53.94;99261.50;4930131;28;119714;-68
2023/10/19 00:08:40;;;;;;;;;;;;;;;15.10;54.07;99257.84;4930147;28;119143;-67
2023/10/19 00:11:08;;;;;;;;;;;;;;;15.10;54.02;99241.84;4927211;28;124005;-67
2023/10/19 00:13:36;;;;;;;;;;;;;;;15.11;54.18;99245.38;4931372;28;124247;-67
2023/10/19 00:16:11;;;;;;;;;;;;;;;15.14;54.06;99258.41;4924463;28;119748;-66
2023/10/19 00:18:42;;;;;;;;;;;;;;;15.16;54.13;99262.63;4928195;28;118486;-67
2023/10/19 00:21:21;;;;;;;;;;;;;;;15.19;54.21;99248.19;4913324;28;125035;-67
2023/10/19 00:23:51;;;;;;;;;;;;;;;15.21;54.08;99242.72;4916569;28;124468;-67
2023/10/19 00:26:24;;;;;;;;;;;;;;;15.24;54.17;99248.63;4912429;28;120097;-67
2023/10/19 00:29:18;;;;;;;;;;;;;;;15.24;54.19;99237.94;4922669;28;119295;-64
2023/10/19 00:31:46;;;;;;;;;;;;;;;15.27;54.04;99242.97;4917808;28;123212;-64
2023/10/19 00:34:14;;;;;;;;;;;;;;;15.28;54.11;99250.03;4929634;28;124471;-64
2023/10/19 00:36:41;;;;;;;;;;;;;;;15.28;54.10;99250.03;4927858;28;120482;-64
2023/10/19 00:39:16;;;;;;;;;;;;;;;15.29;54.31;99241.00;4920469;28;119930;-64
2023/10/19 00:41:45;;;;;;;;;;;;;;;15.33;54.26;99268.25;4921791;28;124429;-64
2023/10/19 00:45:02;;;;;;;;;;;;;;;15.36;54.26;99274.16;4944274;28;123107;-64
2023/10/19 00:47:08;;;;;;;;;;;;;;;15.40;54.23;99268.56;4929752;28;119770;-64
2023/10/19 00:49:38;;;;;;;;;;;;;;;15.42;54.12;99261.25;4929063;28;117913;-64
2023/10/19 00:52:12;;;;;;;;;;;;;;;15.43;54.32;99252.28;4928540;28;124459;-64
2023/10/19 00:54:52;;;;;;;;;;;;;;;15.46;54.27;99252.00;4925995;28;125008;-64
2023/10/19 00:57:54;;;;;;;;;;;;;;;15.47;54.42;99243.00;4926855;28;119539;-64
2023/10/19 01:00:21;;;;;;;;;;;;;;;15.50;54.34;99232.03;4927536;28;118991;-64
2023/10/19 01:02:52;;;;;;;;;;;;;;;15.52;54.32;99225.59;4944302;28;124862;-64
2023/10/19 01:05:21;;;;;;;;;;;;;;;15.55;54.38;99224.47;4921248;28;124766;-64
2023/10/19 01:08:00;;;;;;;;;;;;;;;15.59;54.45;99225.88;4925088;28;118521;-64
2023/10/19 01:10:28;;;;;;;;;;;;;;;15.61;54.41;99229.22;4923597;28;119728;-64
2023/10/19 01:12:59;;;;;;;;;;;;;;;15.64;54.36;99226.28;4925260;28;124443;-64
2023/10/19 01:15:29;;;;;;;;;;;;;;;15.67;54.35;99238.50;4913424;28;123279;-64
2023/10/19 01:17:57;;;;;;;;;;;;;;;15.68;54.34;99233.03;4929675;28;119799;-63
2023/10/19 01:23:44;;;;;;;;;;;;;;;15.74;54.55;99224.47;4925657;28;124634;-64
2023/10/19 01:33:57;;;;;;;;;;;;;;;15.85;54.66;99225.31;4926463;28;125868;-63
2023/10/19 01:36:24;;;;;;;;;;;;;;;15.87;54.57;99228.69;4906013;28;123060;-64
2023/10/19 01:38:54;;;;;;;;;;;;;;;15.90;54.64;99226.56;4920205;28;120106;-64
2023/10/19 01:41:23;;;;;;;;;;;;;;;15.93;54.63;99228.09;4926770;28;117903;-64
2023/10/19 01:43:53;;;;;;;;;;;;;;;15.97;54.52;99224.16;4928881;28;123109;-63
2023/10/19 01:46:22;;;;;;;;;;;;;;;16.02;54.62;99221.91;4937559;28;124279;-63
2023/10/19 01:48:53;;;;;;;;;;;;;;;16.05;54.65;99221.63;4925948;28;118767;-64
2023/10/19 01:51:22;;;;;;;;;;;;;;;16.08;54.60;99224.00;4925494;28;117934;-64
2023/10/19 01:53:51;;;;;;;;;;;;;;;16.10;54.43;99219.34;4925709;28;124761;-64
2023/10/19 01:56:18;;;;;;;;;;;;;;;16.13;54.49;99213.72;4924494;28;124305;-64
2023/10/19 01:58:46;;;;;;;;;;;;;;;16.15;54.50;99211.75;4945294;28;118517;-63
2023/10/19 02:01:20;;;;;;;;;;;;;;;16.19;54.75;99206.13;4926457;28;117960;-64
2023/10/19 02:03:53;;;;;;;;;;;;;;;16.21;54.54;99210.31;4917791;28;123971;-63
2023/10/19 02:06:21;;;;;;;;;;;;;;;16.25;54.62;99210.88;4939697;28;123265;-63
2023/10/19 02:08:51;;;;;;;;;;;;;;;16.27;54.58;99198.22;4922465;28;118700;-63
2023/10/19 02:11:22;;;;;;;;;;;;;;;16.30;54.61;99211.28;4926861;28;118836;-63
2023/10/19 02:13:50;;;;;;;;;;;;;;;16.33;54.54;99202.97;4944511;28;123891;-63
2023/10/19 02:16:21;;;;;;;;;;;;;;;16.34;54.76;99199.31;4927049;28;123909;-63
2023/10/19 02:18:50;;;;;;;;;;;;;;;16.37;54.67;99204.38;4942879;28;120414;-63
2023/10/19 02:21:22;;;;;;;;;;;;;;;16.39;54.88;99202.41;4918130;28;120070;-64
2023/10/19 02:23:52;;;;;;;;;;;;;;;16.43;54.71;99198.44;4930538;28;123963;-64
2023/10/19 02:26:30;;;;;;;;;;;;;;;16.45;54.57;99195.63;4927013;28;124266;-63
2023/10/19 02:28:58;;;;;;;;;;;;;;;16.46;54.57;99192.81;4927769;28;119490;-65
2023/10/19 02:31:26;;;;;;;;;;;;;;;16.49;54.69;99191.66;4924575;28;118048;-63
2023/10/19 02:34:00;;;;;;;;;;;;;;;16.51;54.73;99195.88;4941537;28;123184;-63
2023/10/19 02:36:31;;;;;;;;;;;;;;;16.54;54.75;99195.59;4937266;28;124201;-63
2023/10/19 02:39:00;;;;;;;;;;;;;;;16.59;54.73;99196.97;4926390;28;119746;-63
2023/10/19 02:41:28;;;;;;;;;;;;;;;16.61;54.72;99195.81;4919919;28;119541;-63
2023/10/19 02:44:02;;;;;;;;;;;;;;;16.67;54.93;99194.38;4921061;28;124169;-63
2023/10/19 02:46:30;;;;;;;;;;;;;;;16.70;54.92;99191.41;4925384;28;122861;-63
2023/10/19 02:49:25;;;;;;;;;;;;;;;16.74;55.00;99187.44;4925245;28;119076;-63
2023/10/19 02:51:53;;;;;;;;;;;;;;;16.79;54.94;99195.88;4934167;28;118699;-63
2023/10/19 02:54:24;;;;;;;;;;;;;;;16.84;54.92;99200.78;4928602;28;124728;-63
2023/10/19 02:56:53;;;;;;;;;;;;;;;16.88;54.87;99186.97;4929873;28;123418;-63
2023/10/19 02:59:24;;;;;;;;;;;;;;;16.93;54.93;99194.53;4926416;28;118756;-63
2023/10/19 03:04:41;;;;;;;;;;;;;;;16.98;54.88;99191.44;4928486;28;124730;-63
2023/10/19 03:07:12;;;;;;;;;;;;;;;16.99;55.02;99190.41;4928758;28;124341;-63
2023/10/19 03:09:48;;;;;;;;;;;;;;;17.01;54.80;99185.75;4930407;28;119615;-63
2023/10/19 03:12:17;;;;;;;;;;;;;;;17.02;54.97;99179.44;4929344;28;118891;-63
2023/10/19 03:14:47;;;;;;;;;;;;;;;17.03;54.83;99178.44;4930035;28;124007;-63
2023/10/19 03:17:15;;;;;;;;;;;;;;;17.05;54.82;99181.81;4914601;28;123017;-63
2023/10/19 03:19:43;;;;;;;;;;;;;;;17.07;55.07;99179.81;4931492;28;119457;-63
2023/10/19 03:22:11;;;;;;;;;;;;;;;17.08;55.08;99177.00;4931214;28;119074;-63
2023/10/19 03:24:43;;;;;;;;;;;;;;;17.10;54.84;99168.81;4917418;28;123162;-63
2023/10/19 03:27:21;;;;;;;;;;;;;;;17.12;54.92;99177.50;4928398;28;123958;-63
2023/10/19 03:29:59;;;;;;;;;;;;;;;17.13;54.96;99168.50;4915416;28;118516;-63
2023/10/19 03:32:26;;;;;;;;;;;;;;;17.15;55.09;99171.88;4916929;28;118587;-63
2023/10/19 03:34:55;;;;;;;;;;;;;;;17.17;54.89;99164.53;4934339;28;124334;-63
2023/10/19 03:37:25;;;;;;;;;;;;;;;17.19;55.07;99162.53;4946697;28;123604;-63
2023/10/19 03:39:56;;;;;;;;;;;;;;;17.21;54.96;99165.91;4942979;28;118625;-63
2023/10/19 03:42:32;;;;;;;;;;;;;;;17.24;55.07;99168.28;4926034;28;119146;-63
2023/10/19 03:45:12;;;;;;;;;;;;;;;17.25;55.20;99167.31;4913451;28;123170;-63
2023/10/19 03:47:43;;;;;;;;;;;;;;;17.26;55.13;99158.25;4931256;28;123802;-63
2023/10/19 03:50:20;;;;;;;;;;;;;;;17.29;55.01;99146.41;4932072;28;119458;-63
2023/10/19 03:52:48;;;;;;;;;;;;;;;17.30;55.13;99154.28;4914032;28;117788;-63
2023/10/19 03:55:18;;;;;;;;;;;;;;;17.32;55.08;99136.22;4930001;28;123856;-63
2023/10/19 03:57:54;;;;;;;;;;;;;;;17.35;55.06;99147.63;4929292;28;124215;-63
2023/10/19 04:00:25;;;;;;;;;;;;;;;17.36;55.26;99138.59;4922343;28;120668;-63
2023/10/19 04:02:53;;;;;;;;;;;;;;;17.39;55.11;99135.63;4928508;28;118878;-63
2023/10/19 04:05:22;;;;;;;;;;;;;;;17.41;54.90;99141.66;4925772;28;124534;-63
2023/10/19 04:07:52;;;;;;;;;;;;;;;17.43;55.14;99137.00;4925486;28;124279;-63
2023/10/19 04:13:02;;;;;;;;;;;;;;;17.48;55.25;99134.72;4926804;28;119343;-63
2023/10/19 04:15:33;;;;;;;;;;;;;;;17.50;55.23;99132.72;4931831;28;123404;-63
2023/10/19 04:18:02;;;;;;;;;;;;;;;17.51;55.11;99139.72;4925475;28;124574;-64
2023/10/19 04:20:30;;;;;;;;;;;;;;;17.53;55.15;99148.44;4930284;28;119884;-63
2023/10/19 04:22:58;;;;;;;;;;;;;;;17.54;55.11;99142.09;4926546;28;118936;-64
2023/10/19 04:25:25;;;;;;;;;;;;;;;17.56;55.31;99132.06;4929727;28;123138;-64
2023/10/19 04:27:53;;;;;;;;;;;;;;;17.57;55.23;99133.75;4928401;28;124107;-63
2023/10/19 04:30:26;;;;;;;;;;;;;;;17.60;55.44;99138.78;4936531;28;118392;-64
2023/10/19 04:32:57;;;;;;;;;;;;;;;17.64;55.35;99134.81;4939207;28;118929;-63
2023/10/19 04:35:29;;;;;;;;;;;;;;;17.67;55.40;99147.88;4937586;28;124470;-64
2023/10/19 04:37:57;;;;;;;;;;;;;;;17.69;55.36;99137.84;4924842;28;124348;-63
2023/10/19 04:40:24;;;;;;;;;;;;;;;17.71;55.22;99145.75;4924625;28;121092;-63
2023/10/19 04:42:53;;;;;;;;;;;;;;;17.73;55.30;99134.88;4930662;28;118723;-63
2023/10/19 04:45:20;;;;;;;;;;;;;;;17.75;55.35;99140.91;4926256;28;124491;-63
2023/10/19 04:47:52;;;;;;;;;;;;;;;17.75;55.20;99140.91;4925571;28;124334;-63
2023/10/19 04:50:19;;;;;;;;;;;;;;;17.76;55.35;99137.22;4944923;28;120391;-63
2023/10/19 04:52:48;;;;;;;;;;;;;;;17.76;55.34;99137.22;4931449;28;96913;-63
2023/10/19 04:55:15;;;;;;;;;;;;;;;17.78;55.40;99129.88;4924422;28;125633;-63
2023/10/19 04:57:42;;;;;;;;;;;;;;;17.77;55.31;99138.91;4929342;28;123592;-63
2023/10/19 05:00:13;;;;;;;;;;;;;;;17.78;55.24;99135.22;4923592;28;119265;-63
2023/10/19 05:02:41;;;;;;;;;;;;;;;17.76;55.33;99142.56;4927924;28;118010;-63
2023/10/19 05:05:09;;;;;;;;;;;;;;;17.78;55.43;99151.28;4943189;28;123286;-63
2023/10/19 05:07:37;;;;;;;;;;;;;;;17.78;55.45;99145.94;4931202;28;124116;-63
2023/10/19 05:10:05;;;;;;;;;;;;;;;17.79;55.29;99147.63;4928380;28;119408;-63
2023/10/19 05:12:32;;;;;;;;;;;;;;;17.79;55.36;99147.63;4926980;28;119280;-63
2023/10/19 05:15:00;;;;;;;;;;;;;;;17.78;55.43;99156.66;4924528;28;124123;-63
2023/10/19 05:17:27;;;;;;;;;;;;;;;17.79;55.49;99158.34;4927015;28;124270;-63
2023/10/19 05:19:55;;;;;;;;;;;;;;;17.80;55.35;99154.66;4928426;28;118399;-63
2023/10/19 05:22:24;;;;;;;;;;;;;;;17.80;55.51;99154.66;4927512;28;119101;-63
2023/10/19 05:24:52;;;;;;;;;;;;;;;17.81;55.54;99151.00;4929203;28;123310;-63
2023/10/19 05:27:19;;;;;;;;;;;;;;;17.83;55.50;99154.34;4925618;28;124588;-63
2023/10/19 05:29:47;;;;;;;;;;;;;;;17.84;55.42;99156.03;4927824;28;119994;-63
2023/10/19 05:32:14;;;;;;;;;;;;;;;17.84;55.38;99156.03;4926933;28;118710;-64
2023/10/19 05:34:41;;;;;;;;;;;;;;;17.84;55.35;99154.22;4926741;28;124309;-64
2023/10/19 05:37:10;;;;;;;;;;;;;;;17.85;55.59;99160.41;4907343;28;123726;-64
2023/10/19 05:39:37;;;;;;;;;;;;;;;17.86;55.66;99154.06;4920071;28;121535;-64
2023/10/19 05:42:05;;;;;;;;;;;;;;;17.87;55.66;99155.75;4927853;28;118736;-64
2023/10/19 05:44:33;;;;;;;;;;;;;;;17.87;55.60;99155.75;4929656;28;124881;-64
2023/10/19 05:47:00;;;;;;;;;;;;;;;17.87;55.75;99161.94;4929747;28;124049;-64
2023/10/19 05:49:31;;;;;;;;;;;;;;;17.89;55.63;99170.69;4923113;28;119901;-64
2023/10/19 05:51:58;;;;;;;;;;;;;;;17.90;55.56;99166.16;4924803;28;119643;-64
2023/10/19 05:54:26;;;;;;;;;;;;;;;17.89;55.65;99167.13;4921739;28;124344;-64
2023/10/19 05:56:54;;;;;;;;;;;;;;;17.91;55.71;99167.81;4927250;28;124246;-64
2023/10/19 05:59:21;;;;;;;;;;;;;;;17.91;55.78;99173.16;4923563;28;119448;-64
2023/10/19 06:01:48;;;;;;;;;;;;;;;17.91;55.71;99170.50;4926882;28;117928;-64
2023/10/19 06:04:17;;;;;;;;;;;;;;;17.94;55.71;99172.88;4923328;28;124151;-64
2023/10/19 06:06:48;;;;;;;;;;;;;;;17.95;55.81;99179.91;4921068;28;125619;-64
2023/10/19 06:09:17;;;;;;;;;;;;;;;17.96;55.56;99181.59;4923053;28;118407;-63
2023/10/19 06:11:45;;;;;;;;;;;;;;;17.96;55.78;99181.59;4939584;28;117903;-65
2023/10/19 06:14:12;;;;;;;;;;;;;;;17.96;55.65;99176.22;4923225;28;125714;-64
2023/10/19 06:16:39;;;;;;;;;;;;;;;17.96;55.66;99170.88;4921090;28;123931;-64
2023/10/19 06:19:06;;;;;;;;;;;;;;;17.97;55.91;99182.41;4925622;28;120147;-64
2023/10/19 06:21:34;;;;;;;;;;;;;;;17.98;55.83;99184.09;4925427;28;118670;-64
2023/10/19 06:24:02;;;;;;;;;;;;;;;17.98;55.78;99179.59;4927436;28;123307;-64
2023/10/19 06:26:30;;;;;;;;;;;;;;;17.98;55.77;99176.91;4929519;28;124931;-64
2023/10/19 06:28:58;;;;;;;;;;;;;;;18.01;55.76;99189.16;4922397;28;120345;-64
2023/10/19 06:31:28;;;;;;;;;;;;;;;18.01;55.88;99195.34;4924173;28;120178;-64
2023/10/19 06:33:57;;;;;;;;;;;;;;;18.01;55.70;99190.00;4933055;28;124304;-64
2023/10/19 06:36:25;;;;;;;;;;;;;;;18.02;55.93;99196.19;4929703;28;124584;-64
2023/10/19 06:38:54;;;;;;;;;;;;;;;18.01;55.82;99191.84;4946380;28;119939;-64
2023/10/19 06:41:22;;;;;;;;;;;;;;;18.01;55.80;99200.72;4933598;28;118691;-64
2023/10/19 06:43:49;;;;;;;;;;;;;;;18.01;56.03;99200.72;4930754;28;125324;-64
2023/10/19 06:46:17;;;;;;;;;;;;;;;18.01;55.95;99195.34;4934145;28;124436;-64
2023/10/19 06:48:44;;;;;;;;;;;;;;;18.02;55.92;99197.00;4927968;28;119240;-64
2023/10/19 06:51:11;;;;;;;;;;;;;;;18.04;55.98;99195.00;4925464;28;118731;-64
2023/10/19 06:53:39;;;;;;;;;;;;;;;18.05;55.93;99202.06;4930011;28;123709;-64
2023/10/19 06:56:08;;;;;;;;;;;;;;;18.07;55.86;99196.56;4923197;28;125978;-64
2023/10/19 06:58:36;;;;;;;;;;;;;;;18.07;56.00;99200.06;4920921;28;119473;-64
2023/10/19 07:01:08;;;;;;;;;;;;;;;18.08;56.08;99207.13;4921741;28;118413;-64
2023/10/19 07:03:35;;;;;;;;;;;;;;;18.09;55.98;99208.78;4931613;28;124980;-64
2023/10/19 07:06:03;;;;;;;;;;;;;;;18.13;56.06;99213.84;4926273;28;124735;-64
2023/10/19 07:08:36;;;;;;;;;;;;;;;18.14;56.09;99210.16;4934400;28;119533;-65
2023/10/19 07:11:03;;;;;;;;;;;;;;;18.15;56.12;99203.81;4929607;28;120113;-64
2023/10/19 07:13:33;;;;;;;;;;;;;;;18.16;56.12;99213.50;4929164;28;125015;-64
2023/10/19 07:16:01;;;;;;;;;;;;;;;18.18;56.06;99214.22;4930933;28;124246;-64
2023/10/19 07:18:28;;;;;;;;;;;;;;;18.21;56.04;99211.19;4928288;28;120640;-64
2023/10/19 07:21:03;;;;;;;;;;;;;;;18.23;56.13;99214.56;4926095;28;119391;-64
2023/10/19 07:23:31;;;;;;;;;;;;;;;18.28;56.16;99225.66;4924927;28;124698;-64
2023/10/19 07:26:01;;;;;;;;;;;;;;;18.31;55.96;99228.03;4923515;28;124995;-65
2023/10/19 07:28:29;;;;;;;;;;;;;;;18.34;56.18;99230.38;4926405;28;119548;-64
2023/10/19 07:30:59;;;;;;;;;;;;;;;18.38;56.14;99231.72;4951308;28;117495;-65
2023/10/19 07:33:27;;;;;;;;;;;;;;;18.41;56.10;99227.91;4928930;28;124173;-65
2023/10/19 07:35:55;;;;;;;;;;;;;;;18.44;56.34;99225.75;4925737;28;124232;-65
2023/10/19 07:38:23;;;;;;;;;;;;;;;18.48;56.17;99224.44;4929754;28;119474;-64
2023/10/19 07:40:53;;;;;;;;;;;;;;;18.52;56.18;99229.47;4929039;28;119189;-64
2023/10/19 07:43:21;;;;;;;;;;;;;;;18.55;56.29;99229.16;4928091;28;124293;-65
2023/10/19 07:45:49;;;;;;;;;;;;;;;18.57;56.22;99219.09;4929137;28;124208;-64
2023/10/19 07:48:16;;;;;;;;;;;;;;;18.59;56.19;99225.13;4932468;28;119452;-64
2023/10/19 07:50:44;;;;;;;;;;;;;;;18.64;56.22;99217.47;4917828;28;117846;-64
2023/10/19 07:53:11;;;;;;;;;;;;;;;18.69;56.18;99231.22;4929029;28;125128;-65
2023/10/19 07:55:39;;;;;;;;;;;;;;;18.71;56.25;99231.91;4931025;28;123450;-65
2023/10/19 07:58:07;;;;;;;;;;;;;;;18.74;56.32;99215.50;4933906;28;120373;-65
2023/10/19 08:00:34;;;;;;;;;;;;;;;18.78;56.22;99224.91;4927199;28;118762;-65
2023/10/19 08:03:02;;;;;;;;;;;;;;;18.82;56.32;99220.09;4923607;28;126174;-65
2023/10/19 08:05:30;;;;;;;;;;;;;;;18.83;56.21;99211.84;4921410;28;124176;-65
2023/10/19 08:07:58;;;;;;;;;;;;;;;18.85;56.25;99211.69;4924224;28;120182;-65
2023/10/19 08:10:26;;;;;;;;;;;;;;;18.88;56.19;99218.59;4926499;28;120737;-65
2023/10/19 08:12:55;;;;;;;;;;;;;;;18.90;56.13;99216.59;4924709;28;124664;-65
2023/10/19 08:15:22;;;;;;;;;;;;;;;18.95;56.23;99219.59;4921713;28;124473;-65
2023/10/19 08:17:50;;;;;;;;;;;;;;;18.98;56.27;99208.56;4918709;28;121519;-65
2023/10/19 08:20:24;;;;;;;;;;;;;;;19.00;56.34;99195.81;4922226;28;119564;-64
2023/10/19 08:22:56;;;;;;;;;;;;;;;19.06;56.25;99189.78;4924692;28;123295;-65
2023/10/19 08:25:27;;;;;;;;;;;;;;;19.11;56.36;99190.13;4929452;28;124705;-64
2023/10/19 08:28:11;;;;;;;;;;;;;;;19.16;56.32;99190.50;4928207;28;120066;-64
2023/10/19 08:30:41;;;;;;;;;;;;;;;19.19;56.27;99190.16;4922460;28;118961;-64
2023/10/19 08:33:08;;;;;;;;;;;;;;;19.24;56.43;99193.19;4921456;28;122951;-64
2023/10/19 08:35:35;;;;;;;;;;;;;;;19.31;56.29;99197.88;4921197;28;124315;-64
2023/10/19 08:38:09;;;;;;;;;;;;;;;19.35;56.27;99193.88;4918307;28;119586;-65
2023/10/19 08:40:38;;;;;;;;;;;;;;;19.39;56.37;99195.22;4924820;28;118126;-64
2023/10/19 08:43:07;;;;;;;;;;;;;;;19.42;56.32;99202.91;4938653;28;123433;-64
2023/10/19 08:45:34;;;;;;;;;;;;;;;19.43;56.27;99191.19;4944025;28;122944;-65
2023/10/19 08:48:02;;;;;;;;;;;;;;;19.44;56.33;99193.72;4921434;28;119196;-64
2023/10/19 08:50:30;;;;;;;;;;;;;;;19.45;56.22;99189.16;4923425;28;119120;-64
2023/10/19 08:52:58;;;;;;;;;;;;;;;19.46;56.24;99182.81;4911875;28;124438;-64
2023/10/19 08:55:25;;;;;;;;;;;;;;;19.46;56.11;99180.13;4908306;28;127096;-65
2023/10/19 08:58:13;;;;;;;;;;;;;;;19.45;56.20;99190.00;4910426;28;120157;-64
2023/10/19 09:00:46;;;;;;;;;;;;;;;19.48;56.41;99194.22;4910208;28;121321;-64
2023/10/19 09:03:16;;;;;;;;;;;;;;;19.52;56.30;99187.50;4915359;28;124376;-64
2023/10/19 09:05:46;;;;;;;;;;;;;;;19.58;56.47;99178.75;4918829;28;125156;-65
2023/10/19 09:08:15;;;;;;;;;;;;;;;19.63;56.46;99176.41;4901678;28;117561;-65
2023/10/19 09:10:45;;;;;;;;;;;;;;;19.68;56.52;99177.75;4925485;28;117821;-65
2023/10/19 09:13:14;;;;;;;;;;;;;;;19.74;56.40;99171.72;4928433;28;124554;-64
2023/10/19 09:15:41;;;;;;;;;;;;;;;19.81;56.52;99172.72;4928937;28;123128;-65
2023/10/19 09:18:16;;;;;;;;;;;;;;;19.88;56.64;99176.44;4929657;28;118226;-65
2023/10/19 09:21:01;;;;;;;;;;;;;;;19.99;56.73;99180.63;4925778;28;118962;-65
2023/10/19 09:23:30;;;;;;;;;;;;;;;20.10;56.59;99171.34;4923295;28;124604;-65
2023/10/19 09:26:02;;;;;;;;;;;;;;;20.18;56.66;99163.25;4929157;28;122984;-65
2023/10/19 09:28:29;;;;;;;;;;;;;;;20.28;56.63;99173.81;4923960;28;119430;-65
2023/10/19 09:30:57;;;;;;;;;;;;;;;20.35;56.61;99175.63;4939639;28;118935;-65
2023/10/19 09:33:25;;;;;;;;;;;;;;;20.42;56.56;99165.03;4923353;28;124363;-65
2023/10/19 09:35:56;;;;;;;;;;;;;;;20.49;56.54;99154.41;4928492;28;123916;-65
2023/10/19 09:38:24;;;;;;;;;;;;;;;20.55;56.54;99159.06;4925893;28;119317;-65
2023/10/19 09:40:54;;;;;;;;;;;;;;;20.62;56.46;99160.09;4925697;28;118605;-65
2023/10/19 09:43:26;;;;;;;;;;;;;;;20.68;56.49;99164.78;4934225;28;123069;-65
2023/10/19 09:45:57;;;;;;;;;;;;;;;20.75;56.51;99165.75;4924272;28;124166;-65
2023/10/19 09:48:26;;;;;;;;;;;;;;;20.83;56.40;99155.94;4928242;28;120891;-65
2023/10/19 09:50:55;;;;;;;;;;;;;;;20.89;56.48;99160.63;4937800;28;118635;-65
2023/10/19 09:53:25;;;;;;;;;;;;;;;20.98;56.41;99165.81;4921391;28;123990;-65
2023/10/19 09:55:54;;;;;;;;;;;;;;;21.06;56.37;99167.59;4925691;28;124224;-65
2023/10/19 09:58:24;;;;;;;;;;;;;;;21.12;56.33;99161.50;4928565;28;119532;-65
2023/10/19 10:00:51;;;;;;;;;;;;;;;21.16;56.32;99162.81;4927064;28;118941;-65
2023/10/19 10:03:37;;;;;;;;;;;;;;;21.19;56.28;99157.06;4926636;28;124421;-65
2023/10/19 10:06:04;;;;;;;;;;;;;;;21.24;56.24;99158.38;4928046;28;125320;-66
2023/10/19 10:08:32;;;;;;;;;;;;;;;21.26;56.11;99154.47;4918599;28;120440;-65
2023/10/19 10:11:13;;;;;;;;;;;;;;;21.28;56.13;99159.69;4921540;28;117867;-65
2023/10/19 10:13:41;;;;;;;;;;;;;;;21.32;56.12;99150.22;4926899;28;125071;-65
2023/10/19 10:16:08;;;;;;;;;;;;;;;21.34;56.09;99149.06;4926717;28;124573;-65
2023/10/19 10:18:36;;;;;;;;;;;;;;;21.36;56.17;99151.53;4923525;28;119179;-65
2023/10/19 10:21:08;;;;;;;;;;;;;;;21.41;56.20;99154.53;4924166;28;119467;-65
2023/10/19 10:23:42;;;;;;;;;;;;;;;21.44;56.18;99138.06;4928876;28;124713;-65
2023/10/19 10:26:11;;;;;;;;;;;;;;;21.47;56.09;99137.69;4926199;28;124159;-65
2023/10/19 10:28:38;;;;;;;;;;;;;;;21.50;56.15;99133.81;4918013;28;119985;-65
2023/10/19 10:31:09;;;;;;;;;;;;;;;21.54;56.21;99135.94;4916241;28;118631;-65
2023/10/19 10:33:40;;;;;;;;;;;;;;;21.57;56.08;99132.88;4925455;28;124406;-65
2023/10/19 10:36:08;;;;;;;;;;;;;;;21.58;56.07;99134.53;4917995;28;124338;-65
2023/10/19 10:38:38;;;;;;;;;;;;;;;21.61;56.06;99127.97;4926011;28;119504;-65
2023/10/19 10:41:09;;;;;;;;;;;;;;;21.63;56.12;99135.88;4915294;28;119987;-65
2023/10/19 10:43:52;;;;;;;;;;;;;;;21.63;56.04;99135.88;4933845;28;123700;-65
2023/10/19 10:46:24;;;;;;;;;;;;;;;21.65;55.97;99133.84;4925356;28;123807;-65
2023/10/19 10:48:51;;;;;;;;;;;;;;;21.66;56.13;99135.50;4927885;28;119015;-65
2023/10/19 10:51:19;;;;;;;;;;;;;;;21.68;56.15;99141.53;4928000;28;119152;-65
2023/10/19 10:53:51;;;;;;;;;;;;;;;21.71;56.08;99138.50;4926660;28;124821;-66
2023/10/19 10:56:19;;;;;;;;;;;;;;;21.76;56.20;99136.09;4923494;28;124728;-65
2023/10/19 10:58:47;;;;;;;;;;;;;;;21.83;56.21;99137.03;4928209;28;119549;-66
2023/10/19 11:01:14;;;;;;;;;;;;;;;21.91;56.25;99128.84;4927080;28;119545;-66
2023/10/19 11:03:46;;;;;;;;;;;;;;;22.02;56.39;99124.00;4924973;28;125068;-65
2023/10/19 11:06:13;;;;;;;;;;;;;;;22.12;56.15;99125.41;4922002;28;124015;-65
2023/10/19 11:08:41;;;;;;;;;;;;;;;22.16;56.02;99132.09;4924645;28;119927;-65
2023/10/19 11:11:11;;;;;;;;;;;;;;;22.20;56.17;99135.28;4923780;28;119004;-65
2023/10/19 11:13:39;;;;;;;;;;;;;;;22.23;56.08;99129.50;4930278;28;124400;-65
2023/10/19 11:16:09;;;;;;;;;;;;;;;22.26;55.89;99136.41;4926190;28;123770;-65
2023/10/19 11:18:37;;;;;;;;;;;;;;;22.29;55.88;99136.88;4926726;28;118284;-65
2023/10/19 11:21:11;;;;;;;;;;;;;;;22.33;55.92;99132.78;4924328;28;119614;-65
2023/10/19 11:23:42;;;;;;;;;;;;;;;22.39;55.87;99141.16;4927644;28;124396;-65
2023/10/19 11:26:10;;;;;;;;;;;;;;;22.41;55.91;99128.31;4928472;28;124585;-65
2023/10/19 11:28:50;;;;;;;;;;;;;;;22.43;55.90;99120.88;4922568;28;120595;-66
2023/10/19 11:31:24;;;;;;;;;;;;;;;22.44;55.80;99111.75;4928084;28;119389;-66
2023/10/19 11:33:53;;;;;;;;;;;;;;;22.47;55.97;99112.22;4924330;28;124280;-66
2023/10/19 11:36:21;;;;;;;;;;;;;;;22.51;56.05;99101.91;4935677;28;123635;-65
2023/10/19 11:38:51;;;;;;;;;;;;;;;22.52;55.70;99092.75;4926518;28;119941;-65
2023/10/19 11:41:18;;;;;;;;;;;;;;;22.53;55.90;99099.84;4927640;28;118238;-65
2023/10/19 11:43:46;;;;;;;;;;;;;;;22.51;55.50;99107.28;4924845;28;125727;-65
2023/10/19 11:46:14;;;;;;;;;;;;;;;22.49;55.80;99109.31;4925723;28;124197;-66
2023/10/19 11:48:44;;;;;;;;;;;;;;;22.49;55.61;99093.13;4929456;28;119176;-65
2023/10/19 11:51:13;;;;;;;;;;;;;;;22.48;55.61;99091.47;4927884;28;117865;-65
2023/10/19 11:53:41;;;;;;;;;;;;;;;22.48;55.67;99091.47;4930569;28;124182;-66
2023/10/19 11:56:09;;;;;;;;;;;;;;;22.49;55.77;99090.44;4926062;28;123246;-65
2023/10/19 11:58:41;;;;;;;;;;;;;;;22.51;55.53;99085.72;4922593;28;120431;-65
2023/10/19 12:01:11;;;;;;;;;;;;;;;22.50;55.69;99079.44;4928912;28;119085;-65
2023/10/19 12:03:43;;;;;;;;;;;;;;;22.51;55.72;99080.31;4928095;28;124399;-65
2023/10/19 12:06:10;;;;;;;;;;;;;;;22.52;55.77;99076.56;4926339;28;124313;-65
2023/10/19 12:08:38;;;;;;;;;;;;;;;22.52;55.49;99077.41;4929403;28;119801;-64
2023/10/19 12:11:15;;;;;;;;;;;;;;;22.51;55.60;99080.31;4919069;28;119626;-65
2023/10/19 12:13:45;;;;;;;;;;;;;;;22.48;55.59;99069.88;4911194;28;123763;-65
2023/10/19 12:16:14;;;;;;;;;;;;;;;22.47;55.77;99068.19;4925524;28;124733;-65
2023/10/19 12:18:43;;;;;;;;;;;;;;;22.44;55.76;99069.44;4924983;28;121379;-65
2023/10/19 12:21:13;;;;;;;;;;;;;;;22.44;55.79;99064.03;4926236;28;118534;-65
2023/10/19 12:23:41;;;;;;;;;;;;;;;22.44;55.52;99074.00;4929193;28;124125;-65
2023/10/19 12:26:11;;;;;;;;;;;;;;;22.41;55.39;99063.56;4926129;28;124024;-65
2023/10/19 12:28:40;;;;;;;;;;;;;;;22.37;55.50;99078.47;4928909;28;119683;-66
2023/10/19 12:31:10;;;;;;;;;;;;;;;22.32;55.53;99082.56;4923105;28;119122;-65
2023/10/19 12:33:38;;;;;;;;;;;;;;;22.27;55.41;99076.91;4922326;28;124927;-65
2023/10/19 12:38:52;;;;;;;;;;;;;;;22.16;55.64;99061.16;4926212;28;119763;-65
2023/10/19 12:41:19;;;;;;;;;;;;;;;22.12;55.58;99065.28;4922537;28;118958;-65
2023/10/19 12:43:46;;;;;;;;;;;;;;;22.08;55.58;99059.41;4926299;28;124468;-64
2023/10/19 12:46:15;;;;;;;;;;;;;;;22.06;55.56;99066.03;4921876;28;125104;-65
2023/10/19 12:48:43;;;;;;;;;;;;;;;22.04;55.71;99057.25;4940901;28;119665;-65
2023/10/19 12:51:11;;;;;;;;;;;;;;;22.03;55.71;99061.00;4923162;28;118814;-65
2023/10/19 12:53:38;;;;;;;;;;;;;;;22.01;55.71;99054.97;4928514;28;123344;-64
2023/10/19 12:56:10;;;;;;;;;;;;;;;22.00;55.49;99050.56;4927481;28;123892;-64
2023/10/19 12:58:37;;;;;;;;;;;;;;;21.99;55.75;99052.44;4914026;28;118313;-65
2023/10/19 13:01:05;;;;;;;;;;;;;;;21.96;55.67;99050.97;4919296;28;119468;-64
2023/10/19 13:03:32;;;;;;;;;;;;;;;21.93;55.67;99045.94;4913643;28;125519;-65
2023/10/19 13:06:04;;;;;;;;;;;;;;;21.91;55.72;99048.00;4912355;28;124545;-64
2023/10/19 13:08:32;;;;;;;;;;;;;;;21.92;55.70;99049.66;4912280;28;120369;-64